• Join FlightAware (Why Join?)
  • Login
  • US Flag 
02:36PM EDT


 

Airport Tracker/Info


-or-


 

Live Flight TrackerFlight Track Log ✈ KAP5 ✈ 22-Jun-2013 ✈ KALB - KBOS

Flight Track Log - Related Links

Times and Time Zones

All times are in EDT time to prevent confusion due to time zone crossing. See the KAP5 flight status page for this flight to view local times or setup timezone preferences in your user account.

Time Position Orientation Groundspeed Altitude Reporting Facility
EDT Latitude Longitude Course Direction KTS MPH feet Rate Location/Type
02:32PM 42.7581 -73.7183 79° East 122 140 2,400  Level Boston Center
02:33PM 42.7628 -73.6703 82° East 135 155 3,200 660 Climbing Boston Center
02:34PM 42.7611 -73.6250 93° East 122 140 3,800 660 Climbing Boston Center
02:35PM 42.7658 -73.5769 82° East 124 143 4,600 720 Climbing Boston Center
02:36PM 42.7703 -73.5261 83° East 124 143 5,300 600 Climbing Boston Center
02:37PM 42.7728 -73.4839 85° East 124 143 5,900 600 Climbing Boston Center
02:38PM 42.7753 -73.4300 86° East 124 143 6,600 600 Climbing Boston Center
02:39PM 42.7778 -73.3878 85° East 124 143 7,200 600 Climbing Boston Center
02:40PM 42.7719 -73.3339 98° East 124 143 7,900 600 Climbing Boston Center
02:41PM 42.7642 -73.2856 102° East 129 148 8,500 540 Climbing Boston Center
02:42PM 42.7539 -73.2319 105° East 129 148 9,000 240 Climbing Boston Center
02:43PM 42.7461 -73.1722 100° East 155 178 9,000  Level Boston Center
02:44PM 42.7319 -73.0986 105° East 177 204 9,000  Level Boston Center
02:45PM 42.7219 -73.0336 102° East 183 211 9,000  Level Boston Center
02:46PM 42.7097 -72.9600 103° East 183 211 9,000  Level Boston Center
02:47PM 42.6975 -72.8919 104° East 183 211 9,000  Level Boston Center
02:48PM 42.6853 -72.8214 103° East 183 211 9,000  Level Boston Center
02:49PM 42.6731 -72.7564 104° East 183 211 9,000  Level Boston Center
02:50PM 42.6606 -72.6914 105° East 183 211 9,000  Level Boston Center
02:51PM 42.6503 -72.6208 101° East 183 211 9,000  Level Boston Center
02:52PM 42.6381 -72.5558 104° East 183 211 9,000  Level Boston Center
02:53PM 42.6275 -72.5022 105° East 183 211 9,000  Level Boston Center
02:54PM 42.6150 -72.4317 104° East 183 211 9,000  Level Boston Center
02:55PM 42.6025 -72.3667 105° East 183 211 9,000  Level Boston Center
02:56PM 42.5919 -72.2992 102° East 183 211 9,000  Level Boston Center
02:57PM 42.5772 -72.2231 105° East 183 211 9,000  Level Boston Center
02:58PM 42.5647 -72.1583 105° East 183 211 9,000  Level Boston Center
02:59PM 42.5500 -72.0794 104° East 183 211 9,000  Level Boston Center
03:00PM 42.5433 -72.0203 99° East 183 211 9,000  Level Boston Center
03:01PM 42.5347 -71.9497 99° East 178 205 9,000  Level Boston Center
03:02PM 42.5303 -71.8878 96° East 178 205 9,000  Level Boston Center
03:03PM 42.5258 -71.8258 96° East 178 205 9,000  Level Boston Center
03:04PM 42.5192 -71.7556 97° East 178 205 9,000  Level Boston Center
03:05PM 42.5189 -71.6822 90° East 178 205 9,000  Level Boston Center
03:06PM 42.5225 -71.6203 85° East 178 205 9,000 -240 Level Boston Center
03:07PM 42.5261 -71.5414 86° East 184 212 8,600 -480 Descending Boston Center
03:08PM 42.5275 -71.4681 89° East 200 230 8,100 -600 Descending Boston Center
03:09PM 42.5331 -71.3778 85° East 210 242 7,500 -600 Descending Boston Center
03:10PM 42.5322 -71.2961 91° East 215 247 6,900 -900 Descending Boston Center
03:11PM 42.5272 -71.2175 95° East 215 247 5,800 -1,260 Descending Boston Center
03:12PM 42.5158 -71.1389 101° East 215 247 4,400 -1,260 Descending Boston Center
03:13PM 42.4819 -71.0775 127° Southeast 210 242 3,300 -1,200 Descending Boston Center
03:14PM 42.4394 -71.0278 139° Southeast 200 230 2,000 -1,260 Descending Boston Center
03:15PM 42.4036 -70.9919 144° Southeast 178 205 800 -720 Descending Boston Center
03:16PM 42.3656 -70.9564 145° Southeast 169 194 600 -240 Descending Boston Center
03:18PM 42.3500 -71.0000 204° Southwest  Level FlightAware Approximate